sensor_id;sensor_type;location;lat;lon;timestamp;temperature;humidity
5274;DHT22;56254;50.956;7.010;2022-08-21T00:00:43;19.80;93.70
5274;DHT22;56254;50.956;7.010;2022-08-21T00:03:10;19.70;93.70
5274;DHT22;56254;50.956;7.010;2022-08-21T00:05:40;19.70;94.10
5274;DHT22;56254;50.956;7.010;2022-08-21T00:08:07;19.60;94.10
5274;DHT22;56254;50.956;7.010;2022-08-21T00:10:32;19.60;94.20
5274;DHT22;56254;50.956;7.010;2022-08-21T00:12:59;19.60;94.40
5274;DHT22;56254;50.956;7.010;2022-08-21T00:15:29;19.60;94.60
5274;DHT22;56254;50.956;7.010;2022-08-21T00:17:55;19.50;94.50
5274;DHT22;56254;50.956;7.010;2022-08-21T00:20:22;19.50;94.80
5274;DHT22;56254;50.956;7.010;2022-08-21T00:22:48;19.40;95.10
5274;DHT22;56254;50.956;7.010;2022-08-21T00:25:15;19.40;95.40
5274;DHT22;56254;50.956;7.010;2022-08-21T00:27:41;19.30;95.60
5274;DHT22;56254;50.956;7.010;2022-08-21T00:30:09;19.30;95.50
5274;DHT22;56254;50.956;7.010;2022-08-21T00:32:38;19.30;95.10
5274;DHT22;56254;50.956;7.010;2022-08-21T00:35:06;19.20;95.40
5274;DHT22;56254;50.956;7.010;2022-08-21T00:37:32;19.40;94.80
5274;DHT22;56254;50.956;7.010;2022-08-21T00:39:58;19.30;94.40
5274;DHT22;56254;50.956;7.010;2022-08-21T00:42:23;19.40;94.20
5274;DHT22;56254;50.956;7.010;2022-08-21T00:44:49;19.30;93.90
5274;DHT22;56254;50.956;7.010;2022-08-21T00:47:17;19.30;94.10
5274;DHT22;56254;50.956;7.010;2022-08-21T00:49:43;19.30;94.50
5274;DHT22;56254;50.956;7.010;2022-08-21T00:52:15;19.30;94.10
5274;DHT22;56254;50.956;7.010;2022-08-21T00:54:43;19.20;94.60
5274;DHT22;56254;50.956;7.010;2022-08-21T00:57:15;19.20;94.80
5274;DHT22;56254;50.956;7.010;2022-08-21T00:59:43;19.20;95.10
5274;DHT22;56254;50.956;7.010;2022-08-21T01:02:12;19.20;94.90
5274;DHT22;56254;50.956;7.010;2022-08-21T01:04:38;19.20;94.70
5274;DHT22;56254;50.956;7.010;2022-08-21T01:07:04;19.20;95.00
5274;DHT22;56254;50.956;7.010;2022-08-21T01:09:30;19.10;94.80
5274;DHT22;56254;50.956;7.010;2022-08-21T01:11:55;19.10;95.00
5274;DHT22;56254;50.956;7.010;2022-08-21T01:14:21;19.10;94.80
5274;DHT22;56254;50.956;7.010;2022-08-21T01:16:50;19.10;95.10
5274;DHT22;56254;50.956;7.010;2022-08-21T01:19:18;19.10;94.90
5274;DHT22;56254;50.956;7.010;2022-08-21T01:21:45;19.10;95.40
5274;DHT22;56254;50.956;7.010;2022-08-21T01:24:11;18.90;96.20
5274;DHT22;56254;50.956;7.010;2022-08-21T01:26:37;19.10;96.00
5274;DHT22;56254;50.956;7.010;2022-08-21T01:29:34;19.00;96.00
5274;DHT22;56254;50.956;7.010;2022-08-21T01:32:11;19.10;96.10
5274;DHT22;56254;50.956;7.010;2022-08-21T01:34:41;19.00;96.10
5274;DHT22;56254;50.956;7.010;2022-08-21T01:37:08;19.00;96.50
5274;DHT22;56254;50.956;7.010;2022-08-21T01:39:34;18.90;96.60
5274;DHT22;56254;50.956;7.010;2022-08-21T01:42:00;18.80;97.00
5274;DHT22;56254;50.956;7.010;2022-08-21T01:44:26;18.80;96.80
5274;DHT22;56254;50.956;7.010;2022-08-21T01:46:53;18.80;96.90
5274;DHT22;56254;50.956;7.010;2022-08-21T01:49:19;18.80;97.20
5274;DHT22;56254;50.956;7.010;2022-08-21T01:51:45;18.80;97.00
5274;DHT22;56254;50.956;7.010;2022-08-21T01:54:11;18.70;97.30
5274;DHT22;56254;50.956;7.010;2022-08-21T01:56:40;18.60;97.80
5274;DHT22;56254;50.956;7.010;2022-08-21T01:59:06;18.60;97.80
5274;DHT22;56254;50.956;7.010;2022-08-21T02:01:32;18.60;97.90
5274;DHT22;56254;50.956;7.010;2022-08-21T02:03:58;18.60;98.20
5274;DHT22;56254;50.956;7.010;2022-08-21T02:06:25;18.60;98.20
5274;DHT22;56254;50.956;7.010;2022-08-21T02:08:51;18.40;98.20
5274;DHT22;56254;50.956;7.010;2022-08-21T02:11:17;18.40;98.80
5274;DHT22;56254;50.956;7.010;2022-08-21T02:13:43;18.20;98.70
5274;DHT22;56254;50.956;7.010;2022-08-21T02:16:09;18.30;98.80
5274;DHT22;56254;50.956;7.010;2022-08-21T02:18:35;18.40;98.10
5274;DHT22;56254;50.956;7.010;2022-08-21T02:21:01;18.40;97.90
5274;DHT22;56254;50.956;7.010;2022-08-21T02:23:27;18.40;98.00
5274;DHT22;56254;50.956;7.010;2022-08-21T02:25:54;18.40;98.20
5274;DHT22;56254;50.956;7.010;2022-08-21T02:28:22;18.30;97.90
5274;DHT22;56254;50.956;7.010;2022-08-21T02:30:48;18.30;97.90
5274;DHT22;56254;50.956;7.010;2022-08-21T02:33:14;18.20;98.30
5274;DHT22;56254;50.956;7.010;2022-08-21T02:35:42;18.20;98.30
5274;DHT22;56254;50.956;7.010;2022-08-21T02:38:15;18.20;98.80
5274;DHT22;56254;50.956;7.010;2022-08-21T02:40:44;18.10;99.90
5274;DHT22;56254;50.956;7.010;2022-08-21T02:43:11;18.10;99.90
5274;DHT22;56254;50.956;7.010;2022-08-21T02:45:39;18.20;99.00
5274;DHT22;56254;50.956;7.010;2022-08-21T02:48:08;18.10;99.90
5274;DHT22;56254;50.956;7.010;2022-08-21T02:50:36;18.10;99.90
5274;DHT22;56254;50.956;7.010;2022-08-21T02:53:03;18.10;99.90
5274;DHT22;56254;50.956;7.010;2022-08-21T02:55:31;18.00;99.90
5274;DHT22;56254;50.956;7.010;2022-08-21T02:57:58;17.90;99.90
5274;DHT22;56254;50.956;7.010;2022-08-21T03:00:27;18.00;99.90
5274;DHT22;56254;50.956;7.010;2022-08-21T03:02:53;17.80;99.90
5274;DHT22;56254;50.956;7.010;2022-08-21T03:05:20;17.80;99.90
5274;DHT22;56254;50.956;7.010;2022-08-21T03:07:47;17.80;99.90
5274;DHT22;56254;50.956;7.010;2022-08-21T03:10:14;17.80;99.90
5274;DHT22;56254;50.956;7.010;2022-08-21T03:12:40;17.80;99.90
5274;DHT22;56254;50.956;7.010;2022-08-21T03:15:08;17.90;99.90
5274;DHT22;56254;50.956;7.010;2022-08-21T03:17:35;17.80;99.90
5274;DHT22;56254;50.956;7.010;2022-08-21T03:20:00;17.90;99.90
5274;DHT22;56254;50.956;7.010;2022-08-21T03:22:27;17.90;99.90
5274;DHT22;56254;50.956;7.010;2022-08-21T03:24:53;17.80;99.90
5274;DHT22;56254;50.956;7.010;2022-08-21T03:27:19;17.80;99.90
5274;DHT22;56254;50.956;7.010;2022-08-21T03:29:44;17.70;99.90
5274;DHT22;56254;50.956;7.010;2022-08-21T03:32:10;17.70;99.90
5274;DHT22;56254;50.956;7.010;2022-08-21T03:34:37;17.70;99.90
5274;DHT22;56254;50.956;7.010;2022-08-21T03:37:04;17.70;99.90
5274;DHT22;56254;50.956;7.010;2022-08-21T03:39:30;17.60;99.90
5274;DHT22;56254;50.956;7.010;2022-08-21T03:41:56;17.60;99.90
5274;DHT22;56254;50.956;7.010;2022-08-21T03:44:21;17.60;99.90
5274;DHT22;56254;50.956;7.010;2022-08-21T03:46:47;17.50;99.90
5274;DHT22;56254;50.956;7.010;2022-08-21T03:49:13;17.50;99.90
5274;DHT22;56254;50.956;7.010;2022-08-21T03:51:39;17.50;99.90
5274;DHT22;56254;50.956;7.010;2022-08-21T03:54:05;17.60;99.90
5274;DHT22;56254;50.956;7.010;2022-08-21T03:56:31;17.50;99.90
5274;DHT22;56254;50.956;7.010;2022-08-21T03:58:57;17.40;99.90
5274;DHT22;56254;50.956;7.010;2022-08-21T04:01:23;17.30;99.90
5274;DHT22;56254;50.956;7.010;2022-08-21T04:03:48;17.40;99.90
5274;DHT22;56254;50.956;7.010;2022-08-21T04:06:14;17.30;99.90
5274;DHT22;56254;50.956;7.010;2022-08-21T04:08:40;17.40;99.90
5274;DHT22;56254;50.956;7.010;2022-08-21T04:11:08;17.30;99.90
5274;DHT22;56254;50.956;7.010;2022-08-21T04:13:36;17.40;99.90
5274;DHT22;56254;50.956;7.010;2022-08-21T04:16:02;17.30;99.90
5274;DHT22;56254;50.956;7.010;2022-08-21T04:18:28;17.40;99.90
5274;DHT22;56254;50.956;7.010;2022-08-21T04:20:56;17.40;99.90
5274;DHT22;56254;50.956;7.010;2022-08-21T04:23:22;17.40;99.90
5274;DHT22;56254;50.956;7.010;2022-08-21T04:25:48;17.40;99.90
5274;DHT22;56254;50.956;7.010;2022-08-21T04:28:13;17.40;99.90
5274;DHT22;56254;50.956;7.010;2022-08-21T04:30:39;17.40;99.90
5274;DHT22;56254;50.956;7.010;2022-08-21T04:33:05;17.40;99.90
5274;DHT22;56254;50.956;7.010;2022-08-21T04:35:32;17.30;99.90
5274;DHT22;56254;50.956;7.010;2022-08-21T04:37:58;17.30;99.90
5274;DHT22;56254;50.956;7.010;2022-08-21T04:40:26;17.20;99.90
5274;DHT22;56254;50.956;7.010;2022-08-21T04:42:55;17.30;99.90
5274;DHT22;56254;50.956;7.010;2022-08-21T04:45:27;17.20;99.90
5274;DHT22;56254;50.956;7.010;2022-08-21T04:47:56;17.20;99.90
5274;DHT22;56254;50.956;7.010;2022-08-21T04:50:28;17.20;99.90
5274;DHT22;56254;50.956;7.010;2022-08-21T04:52:55;17.20;99.90
5274;DHT22;56254;50.956;7.010;2022-08-21T04:55:21;17.20;99.90
5274;DHT22;56254;50.956;7.010;2022-08-21T04:57:48;17.30;99.90
5274;DHT22;56254;50.956;7.010;2022-08-21T05:00:19;17.20;99.90
5274;DHT22;56254;50.956;7.010;2022-08-21T05:02:46;17.30;99.90
5274;DHT22;56254;50.956;7.010;2022-08-21T05:05:17;17.30;99.90
5274;DHT22;56254;50.956;7.010;2022-08-21T05:07:44;17.30;99.90
5274;DHT22;56254;50.956;7.010;2022-08-21T05:10:10;17.30;99.90
5274;DHT22;56254;50.956;7.010;2022-08-21T05:12:36;17.50;99.90
5274;DHT22;56254;50.956;7.010;2022-08-21T05:15:03;17.70;99.90
5274;DHT22;56254;50.956;7.010;2022-08-21T05:17:28;17.70;99.90
5274;DHT22;56254;50.956;7.010;2022-08-21T05:19:54;17.80;99.90
5274;DHT22;56254;50.956;7.010;2022-08-21T05:22:22;17.80;99.90
5274;DHT22;56254;50.956;7.010;2022-08-21T05:24:48;17.80;99.90
5274;DHT22;56254;50.956;7.010;2022-08-21T05:27:13;17.80;99.90
5274;DHT22;56254;50.956;7.010;2022-08-21T05:29:39;17.90;99.90
5274;DHT22;56254;50.956;7.010;2022-08-21T05:32:09;18.00;99.90
5274;DHT22;56254;50.956;7.010;2022-08-21T05:34:35;18.00;99.90
5274;DHT22;56254;50.956;7.010;2022-08-21T05:37:01;18.00;99.90
5274;DHT22;56254;50.956;7.010;2022-08-21T05:39:28;18.10;99.90
5274;DHT22;56254;50.956;7.010;2022-08-21T05:41:53;18.10;99.90
5274;DHT22;56254;50.956;7.010;2022-08-21T05:44:19;18.20;99.50
5274;DHT22;56254;50.956;7.010;2022-08-21T05:46:45;18.20;99.30
5274;DHT22;56254;50.956;7.010;2022-08-21T05:49:11;18.10;99.90
5274;DHT22;56254;50.956;7.010;2022-08-21T05:51:37;18.10;99.90
5274;DHT22;56254;50.956;7.010;2022-08-21T05:54:04;18.10;99.90
5274;DHT22;56254;50.956;7.010;2022-08-21T05:56:30;18.20;99.20
5274;DHT22;56254;50.956;7.010;2022-08-21T05:58:55;18.20;99.10
5274;DHT22;56254;50.956;7.010;2022-08-21T06:01:21;18.20;99.40
5274;DHT22;56254;50.956;7.010;2022-08-21T06:03:47;18.30;99.30
5274;DHT22;56254;50.956;7.010;2022-08-21T06:06:13;18.30;99.00
5274;DHT22;56254;50.956;7.010;2022-08-21T06:08:39;18.40;99.10
5274;DHT22;56254;50.956;7.010;2022-08-21T06:11:05;18.50;98.80
5274;DHT22;56254;50.956;7.010;2022-08-21T06:13:31;18.50;98.40
5274;DHT22;56254;50.956;7.010;2022-08-21T06:18:31;18.60;97.30
5274;DHT22;56254;50.956;7.010;2022-08-21T06:20:57;18.80;97.40
5274;DHT22;56254;50.956;7.010;2022-08-21T06:23:23;18.80;96.80
5274;DHT22;56254;50.956;7.010;2022-08-21T06:25:48;18.90;96.60
5274;DHT22;56254;50.956;7.010;2022-08-21T06:28:14;18.90;96.10
5274;DHT22;56254;50.956;7.010;2022-08-21T06:30:40;19.10;96.30
5274;DHT22;56254;50.956;7.010;2022-08-21T06:33:06;19.20;95.50
5274;DHT22;56254;50.956;7.010;2022-08-21T06:35:32;19.20;95.20
5274;DHT22;56254;50.956;7.010;2022-08-21T06:37:58;19.30;94.80
5274;DHT22;56254;50.956;7.010;2022-08-21T06:40:25;19.80;93.00
5274;DHT22;56254;50.956;7.010;2022-08-21T06:42:50;21.20;87.20
5274;DHT22;56254;50.956;7.010;2022-08-21T06:45:16;24.00;77.00
5274;DHT22;56254;50.956;7.010;2022-08-21T06:47:42;25.90;70.30
5274;DHT22;56254;50.956;7.010;2022-08-21T06:50:08;27.40;64.50
5274;DHT22;56254;50.956;7.010;2022-08-21T06:52:37;28.00;62.90
5274;DHT22;56254;50.956;7.010;2022-08-21T06:55:05;27.90;61.30
5274;DHT22;56254;50.956;7.010;2022-08-21T06:57:32;25.80;66.60
5274;DHT22;56254;50.956;7.010;2022-08-21T06:59:58;24.30;71.00
5274;DHT22;56254;50.956;7.010;2022-08-21T07:02:23;23.30;76.00
5274;DHT22;56254;50.956;7.010;2022-08-21T07:04:49;22.60;77.50
5274;DHT22;56254;50.956;7.010;2022-08-21T07:07:15;22.20;79.20
5274;DHT22;56254;50.956;7.010;2022-08-21T07:09:40;21.80;80.30
5274;DHT22;56254;50.956;7.010;2022-08-21T07:12:06;21.60;81.20
5274;DHT22;56254;50.956;7.010;2022-08-21T07:14:32;21.50;82.00
5274;DHT22;56254;50.956;7.010;2022-08-21T07:16:57;21.50;82.50
5274;DHT22;56254;50.956;7.010;2022-08-21T07:19:23;21.70;81.90
5274;DHT22;56254;50.956;7.010;2022-08-21T07:21:49;23.40;76.80
5274;DHT22;56254;50.956;7.010;2022-08-21T07:24:14;25.50;70.50
5274;DHT22;56254;50.956;7.010;2022-08-21T07:26:40;27.00;64.20
5274;DHT22;56254;50.956;7.010;2022-08-21T07:29:06;28.00;60.90
5274;DHT22;56254;50.956;7.010;2022-08-21T07:31:32;28.50;59.30
5274;DHT22;56254;50.956;7.010;2022-08-21T07:33:57;28.70;58.10
5274;DHT22;56254;50.956;7.010;2022-08-21T07:36:23;28.70;58.70
5274;DHT22;56254;50.956;7.010;2022-08-21T07:38:49;28.90;57.60
5274;DHT22;56254;50.956;7.010;2022-08-21T07:41:25;28.70;58.20
5274;DHT22;56254;50.956;7.010;2022-08-21T07:43:51;28.50;58.10
5274;DHT22;56254;50.956;7.010;2022-08-21T07:46:17;28.10;58.50
5274;DHT22;56254;50.956;7.010;2022-08-21T07:48:43;27.50;59.00
5274;DHT22;56254;50.956;7.010;2022-08-21T07:51:11;26.60;60.70
5274;DHT22;56254;50.956;7.010;2022-08-21T07:53:38;25.70;64.00
5274;DHT22;56254;50.956;7.010;2022-08-21T07:56:05;25.10;65.20
5274;DHT22;56254;50.956;7.010;2022-08-21T07:58:32;24.70;65.90
5274;DHT22;56254;50.956;7.010;2022-08-21T08:00:57;24.10;68.50
5274;DHT22;56254;50.956;7.010;2022-08-21T08:03:23;23.80;69.60
5274;DHT22;56254;50.956;7.010;2022-08-21T08:05:49;23.90;69.00
5274;DHT22;56254;50.956;7.010;2022-08-21T08:08:15;23.70;69.30
5274;DHT22;56254;50.956;7.010;2022-08-21T08:10:41;23.70;70.90
5274;DHT22;56254;50.956;7.010;2022-08-21T08:13:07;23.70;70.00
5274;DHT22;56254;50.956;7.010;2022-08-21T08:15:34;23.60;70.60
5274;DHT22;56254;50.956;7.010;2022-08-21T08:17:59;23.60;69.10
5274;DHT22;56254;50.956;7.010;2022-08-21T08:20:26;23.50;70.30
5274;DHT22;56254;50.956;7.010;2022-08-21T08:22:53;23.60;70.60
5274;DHT22;56254;50.956;7.010;2022-08-21T08:25:20;23.40;70.50
5274;DHT22;56254;50.956;7.010;2022-08-21T08:27:46;23.50;70.90
5274;DHT22;56254;50.956;7.010;2022-08-21T08:30:14;23.60;69.10
5274;DHT22;56254;50.956;7.010;2022-08-21T08:32:40;23.70;69.20
5274;DHT22;56254;50.956;7.010;2022-08-21T08:35:06;23.60;68.30
5274;DHT22;56254;50.956;7.010;2022-08-21T08:37:33;23.60;70.90
5274;DHT22;56254;50.956;7.010;2022-08-21T08:39:58;23.50;70.50
5274;DHT22;56254;50.956;7.010;2022-08-21T08:42:30;23.60;68.10
5274;DHT22;56254;50.956;7.010;2022-08-21T08:45:18;23.60;69.20
5274;DHT22;56254;50.956;7.010;2022-08-21T08:47:56;23.70;68.30
5274;DHT22;56254;50.956;7.010;2022-08-21T08:53:06;24.00;67.70
5274;DHT22;56254;50.956;7.010;2022-08-21T08:55:37;24.00;68.00
5274;DHT22;56254;50.956;7.010;2022-08-21T08:58:04;24.20;67.30
5274;DHT22;56254;50.956;7.010;2022-08-21T09:00:31;24.10;68.00
5274;DHT22;56254;50.956;7.010;2022-08-21T09:02:59;24.20;66.80
5274;DHT22;56254;50.956;7.010;2022-08-21T09:05:30;24.20;68.30
5274;DHT22;56254;50.956;7.010;2022-08-21T09:16:21;24.50;64.90
5274;DHT22;56254;50.956;7.010;2022-08-21T09:21:35;24.60;64.90
5274;DHT22;56254;50.956;7.010;2022-08-21T09:27:08;24.80;64.20
5274;DHT22;56254;50.956;7.010;2022-08-21T09:29:37;24.90;62.70
5274;DHT22;56254;50.956;7.010;2022-08-21T09:32:30;24.90;63.00
5274;DHT22;56254;50.956;7.010;2022-08-21T09:35:16;25.00;62.90
5274;DHT22;56254;50.956;7.010;2022-08-21T09:38:06;25.00;62.20
5274;DHT22;56254;50.956;7.010;2022-08-21T09:40:37;25.00;62.40
5274;DHT22;56254;50.956;7.010;2022-08-21T09:45:41;25.10;61.90
5274;DHT22;56254;50.956;7.010;2022-08-21T09:48:27;25.10;62.50
5274;DHT22;56254;50.956;7.010;2022-08-21T09:51:06;25.20;62.30
5274;DHT22;56254;50.956;7.010;2022-08-21T09:53:32;25.20;62.20
5274;DHT22;56254;50.956;7.010;2022-08-21T09:56:04;25.30;62.40
5274;DHT22;56254;50.956;7.010;2022-08-21T09:58:51;25.30;62.60
5274;DHT22;56254;50.956;7.010;2022-08-21T10:01:22;25.50;61.50
5274;DHT22;56254;50.956;7.010;2022-08-21T10:03:49;25.40;61.20
5274;DHT22;56254;50.956;7.010;2022-08-21T10:06:24;25.40;60.90
5274;DHT22;56254;50.956;7.010;2022-08-21T10:08:50;25.30;61.20
5274;DHT22;56254;50.956;7.010;2022-08-21T10:11:31;25.50;60.90
5274;DHT22;56254;50.956;7.010;2022-08-21T10:14:26;25.70;61.00
5274;DHT22;56254;50.956;7.010;2022-08-21T10:17:02;25.50;60.80
5274;DHT22;56254;50.956;7.010;2022-08-21T10:20:04;25.40;60.60
5274;DHT22;56254;50.956;7.010;2022-08-21T10:23:27;25.50;61.10
5274;DHT22;56254;50.956;7.010;2022-08-21T10:25:49;25.50;60.80
5274;DHT22;56254;50.956;7.010;2022-08-21T10:28:51;25.70;60.30
5274;DHT22;56254;50.956;7.010;2022-08-21T10:34:21;26.00;60.00
5274;DHT22;56254;50.956;7.010;2022-08-21T10:39:53;26.00;59.10
5274;DHT22;56254;50.956;7.010;2022-08-21T10:45:18;26.20;58.70
5274;DHT22;56254;50.956;7.010;2022-08-21T10:47:59;26.40;57.40
5274;DHT22;56254;50.956;7.010;2022-08-21T10:50:39;26.30;57.80
5274;DHT22;56254;50.956;7.010;2022-08-21T10:53:29;26.40;57.30
5274;DHT22;56254;50.956;7.010;2022-08-21T10:56:17;26.50;56.90
5274;DHT22;56254;50.956;7.010;2022-08-21T11:03:50;26.70;56.30
5274;DHT22;56254;50.956;7.010;2022-08-21T11:06:30;26.70;56.00
5274;DHT22;56254;50.956;7.010;2022-08-21T11:09:12;27.10;55.50
5274;DHT22;56254;50.956;7.010;2022-08-21T11:11:44;27.00;55.10
5274;DHT22;56254;50.956;7.010;2022-08-21T11:16:46;27.20;55.20
5274;DHT22;56254;50.956;7.010;2022-08-21T11:19:59;27.30;55.30
5274;DHT22;56254;50.956;7.010;2022-08-21T11:22:30;27.40;54.10
5274;DHT22;56254;50.956;7.010;2022-08-21T11:25:07;27.40;54.30
5274;DHT22;56254;50.956;7.010;2022-08-21T11:28:02;27.50;54.20
5274;DHT22;56254;50.956;7.010;2022-08-21T11:31:26;27.70;53.90
5274;DHT22;56254;50.956;7.010;2022-08-21T11:37:02;27.50;54.60
5274;DHT22;56254;50.956;7.010;2022-08-21T11:39:26;27.70;53.90
5274;DHT22;56254;50.956;7.010;2022-08-21T11:44:38;27.70;52.90
5274;DHT22;56254;50.956;7.010;2022-08-21T11:47:15;27.50;53.30
5274;DHT22;56254;50.956;7.010;2022-08-21T11:53:17;27.70;54.00
5274;DHT22;56254;50.956;7.010;2022-08-21T11:58:07;27.70;52.20
5274;DHT22;56254;50.956;7.010;2022-08-21T12:00:40;27.90;51.70
5274;DHT22;56254;50.956;7.010;2022-08-21T12:03:28;28.00;52.10
5274;DHT22;56254;50.956;7.010;2022-08-21T12:06:07;28.10;52.60
5274;DHT22;56254;50.956;7.010;2022-08-21T12:08:38;28.30;51.70
5274;DHT22;56254;50.956;7.010;2022-08-21T12:11:20;28.10;51.50
5274;DHT22;56254;50.956;7.010;2022-08-21T12:13:59;28.30;51.60
5274;DHT22;56254;50.956;7.010;2022-08-21T12:16:46;28.30;51.00
5274;DHT22;56254;50.956;7.010;2022-08-21T12:19:28;28.40;51.00
5274;DHT22;56254;50.956;7.010;2022-08-21T12:24:45;28.70;50.70
5274;DHT22;56254;50.956;7.010;2022-08-21T12:27:30;29.00;50.50
5274;DHT22;56254;50.956;7.010;2022-08-21T12:30:21;28.80;50.10
5274;DHT22;56254;50.956;7.010;2022-08-21T12:32:57;28.50;50.70
5274;DHT22;56254;50.956;7.010;2022-08-21T12:35:44;28.40;50.70
5274;DHT22;56254;50.956;7.010;2022-08-21T12:38:18;28.60;50.40
5274;DHT22;56254;50.956;7.010;2022-08-21T12:40:59;28.90;49.80
5274;DHT22;56254;50.956;7.010;2022-08-21T12:43:33;29.10;48.80
5274;DHT22;56254;50.956;7.010;2022-08-21T12:45:59;29.30;46.70
5274;DHT22;56254;50.956;7.010;2022-08-21T12:48:56;29.10;48.60
5274;DHT22;56254;50.956;7.010;2022-08-21T12:51:28;29.00;48.60
5274;DHT22;56254;50.956;7.010;2022-08-21T12:53:58;29.30;47.60
5274;DHT22;56254;50.956;7.010;2022-08-21T12:56:27;29.30;48.10
5274;DHT22;56254;50.956;7.010;2022-08-21T12:59:12;29.20;47.20
5274;DHT22;56254;50.956;7.010;2022-08-21T13:01:46;29.20;46.10
5274;DHT22;56254;50.956;7.010;2022-08-21T13:04:19;29.30;45.40
5274;DHT22;56254;50.956;7.010;2022-08-21T13:06:51;29.10;45.60
5274;DHT22;56254;50.956;7.010;2022-08-21T13:09:23;29.20;46.40
5274;DHT22;56254;50.956;7.010;2022-08-21T13:11:51;29.30;46.50
5274;DHT22;56254;50.956;7.010;2022-08-21T13:14:36;29.20;46.80
5274;DHT22;56254;50.956;7.010;2022-08-21T13:17:05;29.40;46.40
5274;DHT22;56254;50.956;7.010;2022-08-21T13:19:31;29.20;47.30
5274;DHT22;56254;50.956;7.010;2022-08-21T13:21:57;29.60;47.20
5274;DHT22;56254;50.956;7.010;2022-08-21T13:24:35;29.70;46.80
5274;DHT22;56254;50.956;7.010;2022-08-21T13:27:02;29.90;46.20
5274;DHT22;56254;50.956;7.010;2022-08-21T13:29:33;29.90;45.90
5274;DHT22;56254;50.956;7.010;2022-08-21T13:32:05;29.80;46.40
5274;DHT22;56254;50.956;7.010;2022-08-21T13:34:36;30.00;46.00
5274;DHT22;56254;50.956;7.010;2022-08-21T13:37:07;29.70;46.10
5274;DHT22;56254;50.956;7.010;2022-08-21T13:39:34;29.40;46.10
5274;DHT22;56254;50.956;7.010;2022-08-21T13:42:02;29.10;47.20
5274;DHT22;56254;50.956;7.010;2022-08-21T13:44:39;29.00;47.60
5274;DHT22;56254;50.956;7.010;2022-08-21T13:47:05;28.60;48.90
5274;DHT22;56254;50.956;7.010;2022-08-21T13:49:38;28.50;50.20
5274;DHT22;56254;50.956;7.010;2022-08-21T13:52:17;28.80;48.80
5274;DHT22;56254;50.956;7.010;2022-08-21T13:54:53;29.00;48.50
5274;DHT22;56254;50.956;7.010;2022-08-21T13:57:25;29.30;47.30
5274;DHT22;56254;50.956;7.010;2022-08-21T13:59:51;29.50;47.60
5274;DHT22;56254;50.956;7.010;2022-08-21T14:02:24;29.80;47.00
5274;DHT22;56254;50.956;7.010;2022-08-21T14:05:01;29.70;46.20
5274;DHT22;56254;50.956;7.010;2022-08-21T14:07:32;29.60;46.10
5274;DHT22;56254;50.956;7.010;2022-08-21T14:10:20;29.70;46.50
5274;DHT22;56254;50.956;7.010;2022-08-21T14:12:55;29.80;46.60
5274;DHT22;56254;50.956;7.010;2022-08-21T14:15:25;29.70;46.30
5274;DHT22;56254;50.956;7.010;2022-08-21T14:17:54;29.70;46.60
5274;DHT22;56254;50.956;7.010;2022-08-21T14:20:32;29.60;45.90
5274;DHT22;56254;50.956;7.010;2022-08-21T14:22:58;29.60;46.40
5274;DHT22;56254;50.956;7.010;2022-08-21T14:32:52;29.40;46.50
5274;DHT22;56254;50.956;7.010;2022-08-21T14:35:19;29.60;47.60
5274;DHT22;56254;50.956;7.010;2022-08-21T14:37:47;29.60;45.80
5274;DHT22;56254;50.956;7.010;2022-08-21T14:40:16;29.30;46.30
5274;DHT22;56254;50.956;7.010;2022-08-21T14:42:42;28.60;47.40
5274;DHT22;56254;50.956;7.010;2022-08-21T14:45:15;28.50;47.60
5274;DHT22;56254;50.956;7.010;2022-08-21T14:47:41;28.30;48.20
5274;DHT22;56254;50.956;7.010;2022-08-21T14:50:09;28.30;48.30
5274;DHT22;56254;50.956;7.010;2022-08-21T14:52:35;28.00;48.10
5274;DHT22;56254;50.956;7.010;2022-08-21T14:55:03;27.90;48.90
5274;DHT22;56254;50.956;7.010;2022-08-21T14:57:30;27.90;48.50
5274;DHT22;56254;50.956;7.010;2022-08-21T14:59:56;27.90;48.90
5274;DHT22;56254;50.956;7.010;2022-08-21T15:02:22;27.90;48.90
5274;DHT22;56254;50.956;7.010;2022-08-21T15:04:48;27.70;49.00
5274;DHT22;56254;50.956;7.010;2022-08-21T15:07:14;27.60;49.10
5274;DHT22;56254;50.956;7.010;2022-08-21T15:09:39;27.50;48.50
5274;DHT22;56254;50.956;7.010;2022-08-21T15:12:06;27.40;48.70
5274;DHT22;56254;50.956;7.010;2022-08-21T15:14:34;27.50;48.80
5274;DHT22;56254;50.956;7.010;2022-08-21T15:17:01;27.40;48.60
5274;DHT22;56254;50.956;7.010;2022-08-21T15:19:29;27.50;49.20
5274;DHT22;56254;50.956;7.010;2022-08-21T15:21:55;27.40;48.60
5274;DHT22;56254;50.956;7.010;2022-08-21T15:24:21;27.30;49.30
5274;DHT22;56254;50.956;7.010;2022-08-21T15:26:47;27.30;49.30
5274;DHT22;56254;50.956;7.010;2022-08-21T15:29:13;27.30;48.60
5274;DHT22;56254;50.956;7.010;2022-08-21T15:31:51;27.40;47.80
5274;DHT22;56254;50.956;7.010;2022-08-21T15:34:17;27.50;48.50
5274;DHT22;56254;50.956;7.010;2022-08-21T15:36:43;27.50;48.70
5274;DHT22;56254;50.956;7.010;2022-08-21T15:39:09;27.60;48.00
5274;DHT22;56254;50.956;7.010;2022-08-21T15:41:34;27.60;47.40
5274;DHT22;56254;50.956;7.010;2022-08-21T15:44:00;27.60;48.10
5274;DHT22;56254;50.956;7.010;2022-08-21T15:46:26;27.70;48.60
5274;DHT22;56254;50.956;7.010;2022-08-21T15:48:51;27.60;47.70
5274;DHT22;56254;50.956;7.010;2022-08-21T15:51:17;27.60;48.80
5274;DHT22;56254;50.956;7.010;2022-08-21T15:53:44;27.60;48.30
5274;DHT22;56254;50.956;7.010;2022-08-21T15:56:22;27.60;48.60
5274;DHT22;56254;50.956;7.010;2022-08-21T15:58:54;27.70;48.50
5274;DHT22;56254;50.956;7.010;2022-08-21T16:01:23;27.80;48.70
5274;DHT22;56254;50.956;7.010;2022-08-21T16:03:50;27.80;48.50
5274;DHT22;56254;50.956;7.010;2022-08-21T16:06:17;27.80;48.40
5274;DHT22;56254;50.956;7.010;2022-08-21T16:08:42;27.70;48.20
5274;DHT22;56254;50.956;7.010;2022-08-21T16:11:08;27.70;48.20
5274;DHT22;56254;50.956;7.010;2022-08-21T16:13:38;27.60;48.70
5274;DHT22;56254;50.956;7.010;2022-08-21T16:16:05;27.70;48.10
5274;DHT22;56254;50.956;7.010;2022-08-21T16:18:31;27.80;47.70
5274;DHT22;56254;50.956;7.010;2022-08-21T16:20:57;28.00;47.90
5274;DHT22;56254;50.956;7.010;2022-08-21T16:23:23;28.10;47.60
5274;DHT22;56254;50.956;7.010;2022-08-21T16:25:49;28.10;48.10
5274;DHT22;56254;50.956;7.010;2022-08-21T16:28:17;28.20;47.60
5274;DHT22;56254;50.956;7.010;2022-08-21T16:30:44;28.30;47.00
5274;DHT22;56254;50.956;7.010;2022-08-21T16:33:22;28.40;46.20
5274;DHT22;56254;50.956;7.010;2022-08-21T16:35:49;28.50;46.50
5274;DHT22;56254;50.956;7.010;2022-08-21T16:38:15;28.60;46.60
5274;DHT22;56254;50.956;7.010;2022-08-21T16:40:41;28.60;46.50
5274;DHT22;56254;50.956;7.010;2022-08-21T16:43:07;28.80;46.00
5274;DHT22;56254;50.956;7.010;2022-08-21T16:45:33;28.80;46.50
5274;DHT22;56254;50.956;7.010;2022-08-21T16:47:59;28.70;45.50
5274;DHT22;56254;50.956;7.010;2022-08-21T16:50:25;28.30;46.30
5274;DHT22;56254;50.956;7.010;2022-08-21T16:52:51;28.30;46.70
5274;DHT22;56254;50.956;7.010;2022-08-21T16:55:17;28.40;46.70
5274;DHT22;56254;50.956;7.010;2022-08-21T16:57:43;28.30;46.50
5274;DHT22;56254;50.956;7.010;2022-08-21T17:00:10;28.20;46.70